sensor_id;sensor_type;location;lat;lon;timestamp;P1;durP1;ratioP1;P2;durP2;ratioP2
7571;SDS011;3827;49.928;8.548;2023-04-25T00:00:23;5.28;;;4.88;;
7571;SDS011;3827;49.928;8.548;2023-04-25T00:02:50;4.97;;;4.67;;
7571;SDS011;3827;49.928;8.548;2023-04-25T00:05:17;5.30;;;4.90;;
7571;SDS011;3827;49.928;8.548;2023-04-25T00:07:45;5.47;;;5.10;;
7571;SDS011;3827;49.928;8.548;2023-04-25T00:10:12;5.50;;;5.10;;
7571;SDS011;3827;49.928;8.548;2023-04-25T00:12:39;6.03;;;5.63;;
7571;SDS011;3827;49.928;8.548;2023-04-25T00:15:07;6.38;;;5.88;;
7571;SDS011;3827;49.928;8.548;2023-04-25T00:17:34;6.60;;;6.10;;
7571;SDS011;3827;49.928;8.548;2023-04-25T00:20:03;7.07;;;6.57;;
7571;SDS011;3827;49.928;8.548;2023-04-25T00:22:34;6.85;;;6.35;;
7571;SDS011;3827;49.928;8.548;2023-04-25T00:25:03;6.60;;;6.10;;
7571;SDS011;3827;49.928;8.548;2023-04-25T00:27:31;6.88;;;6.38;;
7571;SDS011;3827;49.928;8.548;2023-04-25T00:29:58;6.72;;;6.22;;
7571;SDS011;3827;49.928;8.548;2023-04-25T00:32:25;6.70;;;6.20;;
7571;SDS011;3827;49.928;8.548;2023-04-25T00:34:52;6.68;;;6.18;;
7571;SDS011;3827;49.928;8.548;2023-04-25T00:37:20;6.90;;;6.40;;
7571;SDS011;3827;49.928;8.548;2023-04-25T00:39:47;6.28;;;5.88;;
7571;SDS011;3827;49.928;8.548;2023-04-25T00:42:15;7.03;;;6.53;;
7571;SDS011;3827;49.928;8.548;2023-04-25T00:44:42;7.40;;;6.80;;
7571;SDS011;3827;49.928;8.548;2023-04-25T00:47:11;7.37;;;6.87;;
7571;SDS011;3827;49.928;8.548;2023-04-25T00:49:38;7.43;;;6.93;;
7571;SDS011;3827;49.928;8.548;2023-04-25T00:52:04;8.10;;;7.50;;
7571;SDS011;3827;49.928;8.548;2023-04-25T00:54:32;8.02;;;7.43;;
7571;SDS011;3827;49.928;8.548;2023-04-25T00:56:59;7.87;;;7.27;;
7571;SDS011;3827;49.928;8.548;2023-04-25T00:59:27;8.23;;;7.63;;
7571;SDS011;3827;49.928;8.548;2023-04-25T01:01:54;8.20;;;7.60;;
7571;SDS011;3827;49.928;8.548;2023-04-25T01:04:21;8.20;;;7.60;;
7571;SDS011;3827;49.928;8.548;2023-04-25T01:06:48;8.20;;;7.60;;
7571;SDS011;3827;49.928;8.548;2023-04-25T01:09:16;8.55;;;7.85;;
7571;SDS011;3827;49.928;8.548;2023-04-25T01:11:42;8.23;;;7.60;;
7571;SDS011;3827;49.928;8.548;2023-04-25T01:14:09;8.60;;;7.90;;
7571;SDS011;3827;49.928;8.548;2023-04-25T01:19:06;8.43;;;7.82;;
7571;SDS011;3827;49.928;8.548;2023-04-25T01:21:37;8.68;;;8.00;;
7571;SDS011;3827;49.928;8.548;2023-04-25T01:24:05;8.70;;;8.00;;
7571;SDS011;3827;49.928;8.548;2023-04-25T01:26:32;8.07;;;7.47;;
7571;SDS011;3827;49.928;8.548;2023-04-25T01:29:01;8.20;;;7.60;;
7571;SDS011;3827;49.928;8.548;2023-04-25T01:31:28;8.13;;;7.53;;
7571;SDS011;3827;49.928;8.548;2023-04-25T01:33:55;8.13;;;7.53;;
7571;SDS011;3827;49.928;8.548;2023-04-25T01:36:21;7.35;;;6.85;;
7571;SDS011;3827;49.928;8.548;2023-04-25T01:38:50;8.50;;;7.80;;
7571;SDS011;3827;49.928;8.548;2023-04-25T01:41:17;7.93;;;7.32;;
7571;SDS011;3827;49.928;8.548;2023-04-25T01:43:44;8.32;;;7.72;;
7571;SDS011;3827;49.928;8.548;2023-04-25T01:46:12;8.30;;;7.70;;
7571;SDS011;3827;49.928;8.548;2023-04-25T01:48:38;8.10;;;7.50;;
7571;SDS011;3827;49.928;8.548;2023-04-25T01:51:05;8.38;;;7.68;;
7571;SDS011;3827;49.928;8.548;2023-04-25T01:53:32;8.00;;;7.30;;
7571;SDS011;3827;49.928;8.548;2023-04-25T01:56:01;8.43;;;7.75;;
7571;SDS011;3827;49.928;8.548;2023-04-25T01:58:27;8.90;;;8.20;;
7571;SDS011;3827;49.928;8.548;2023-04-25T02:00:54;8.10;;;7.50;;
7571;SDS011;3827;49.928;8.548;2023-04-25T02:03:21;8.57;;;7.97;;
7571;SDS011;3827;49.928;8.548;2023-04-25T02:05:48;8.77;;;8.10;;
7571;SDS011;3827;49.928;8.548;2023-04-25T02:08:15;8.13;;;7.53;;
7571;SDS011;3827;49.928;8.548;2023-04-25T02:10:43;8.70;;;8.00;;
7571;SDS011;3827;49.928;8.548;2023-04-25T02:13:11;8.43;;;7.82;;
7571;SDS011;3827;49.928;8.548;2023-04-25T02:15:38;8.40;;;7.80;;
7571;SDS011;3827;49.928;8.548;2023-04-25T02:18:05;8.43;;;7.80;;
7571;SDS011;3827;49.928;8.548;2023-04-25T02:20:32;8.43;;;7.82;;
7571;SDS011;3827;49.928;8.548;2023-04-25T02:22:59;8.52;;;7.85;;
7571;SDS011;3827;49.928;8.548;2023-04-25T02:25:25;8.20;;;7.60;;
7571;SDS011;3827;49.928;8.548;2023-04-25T02:27:52;8.27;;;7.68;;
7571;SDS011;3827;49.928;8.548;2023-04-25T02:30:21;8.77;;;8.15;;
7571;SDS011;3827;49.928;8.548;2023-04-25T02:32:47;8.63;;;8.00;;
7571;SDS011;3827;49.928;8.548;2023-04-25T02:35:14;8.38;;;7.78;;
7571;SDS011;3827;49.928;8.548;2023-04-25T02:37:41;8.35;;;7.65;;
7571;SDS011;3827;49.928;8.548;2023-04-25T02:40:09;8.50;;;7.90;;
7571;SDS011;3827;49.928;8.548;2023-04-25T02:42:36;8.30;;;7.60;;
7571;SDS011;3827;49.928;8.548;2023-04-25T02:45:03;8.02;;;7.40;;
7571;SDS011;3827;49.928;8.548;2023-04-25T02:47:31;7.63;;;7.13;;
7571;SDS011;3827;49.928;8.548;2023-04-25T02:49:58;8.48;;;7.88;;
7571;SDS011;3827;49.928;8.548;2023-04-25T02:52:25;8.95;;;8.25;;
7571;SDS011;3827;49.928;8.548;2023-04-25T02:54:52;8.60;;;7.90;;
7571;SDS011;3827;49.928;8.548;2023-04-25T02:57:18;9.10;;;8.40;;
7571;SDS011;3827;49.928;8.548;2023-04-25T02:59:46;9.23;;;8.52;;
7571;SDS011;3827;49.928;8.548;2023-04-25T03:02:12;9.02;;;8.25;;
7571;SDS011;3827;49.928;8.548;2023-04-25T03:04:41;8.70;;;8.05;;
7571;SDS011;3827;49.928;8.548;2023-04-25T03:07:07;8.73;;;8.02;;
7571;SDS011;3827;49.928;8.548;2023-04-25T03:09:34;8.68;;;8.00;;
7571;SDS011;3827;49.928;8.548;2023-04-25T03:12:01;9.38;;;8.68;;
7571;SDS011;3827;49.928;8.548;2023-04-25T03:14:28;8.95;;;8.27;;
7571;SDS011;3827;49.928;8.548;2023-04-25T03:16:55;9.25;;;8.63;;
7571;SDS011;3827;49.928;8.548;2023-04-25T03:19:21;8.32;;;7.72;;
7571;SDS011;3827;49.928;8.548;2023-04-25T03:21:50;9.35;;;8.68;;
7571;SDS011;3827;49.928;8.548;2023-04-25T03:24:16;8.85;;;8.25;;
7571;SDS011;3827;49.928;8.548;2023-04-25T03:26:43;9.80;;;9.00;;
7571;SDS011;3827;49.928;8.548;2023-04-25T03:29:10;9.63;;;8.93;;
7571;SDS011;3827;49.928;8.548;2023-04-25T03:31:37;9.48;;;8.77;;
7571;SDS011;3827;49.928;8.548;2023-04-25T03:34:04;10.18;;;9.38;;
7571;SDS011;3827;49.928;8.548;2023-04-25T03:36:31;9.70;;;8.90;;
7571;SDS011;3827;49.928;8.548;2023-04-25T03:38:59;10.17;;;9.37;;
7571;SDS011;3827;49.928;8.548;2023-04-25T03:41:26;9.00;;;8.38;;
7571;SDS011;3827;49.928;8.548;2023-04-25T03:43:52;9.77;;;9.07;;
7571;SDS011;3827;49.928;8.548;2023-04-25T03:46:19;9.95;;;9.23;;
7571;SDS011;3827;49.928;8.548;2023-04-25T03:48:46;9.30;;;8.60;;
7571;SDS011;3827;49.928;8.548;2023-04-25T03:51:13;9.55;;;8.85;;
7571;SDS011;3827;49.928;8.548;2023-04-25T03:53:40;9.82;;;9.02;;
7571;SDS011;3827;49.928;8.548;2023-04-25T03:56:08;9.80;;;9.05;;
7571;SDS011;3827;49.928;8.548;2023-04-25T03:58:34;10.00;;;9.20;;
7571;SDS011;3827;49.928;8.548;2023-04-25T04:01:01;10.05;;;9.25;;
7571;SDS011;3827;49.928;8.548;2023-04-25T04:03:32;10.80;;;10.00;;
7571;SDS011;3827;49.928;8.548;2023-04-25T04:05:59;9.95;;;9.25;;
7571;SDS011;3827;49.928;8.548;2023-04-25T04:08:26;10.93;;;10.13;;
7571;SDS011;3827;49.928;8.548;2023-04-25T04:10:52;10.32;;;9.52;;
7571;SDS011;3827;49.928;8.548;2023-04-25T04:13:21;10.10;;;9.20;;
7571;SDS011;3827;49.928;8.548;2023-04-25T04:15:47;10.00;;;9.30;;
7571;SDS011;3827;49.928;8.548;2023-04-25T04:18:14;10.87;;;10.07;;
7571;SDS011;3827;49.928;8.548;2023-04-25T04:20:41;10.73;;;9.93;;
7571;SDS011;3827;49.928;8.548;2023-04-25T04:23:08;11.05;;;10.25;;
7571;SDS011;3827;49.928;8.548;2023-04-25T04:25:35;11.40;;;10.50;;
7571;SDS011;3827;49.928;8.548;2023-04-25T04:28:02;12.00;;;11.00;;
7571;SDS011;3827;49.928;8.548;2023-04-25T04:30:31;12.57;;;11.57;;
7571;SDS011;3827;49.928;8.548;2023-04-25T04:33:01;12.43;;;11.32;;
7571;SDS011;3827;49.928;8.548;2023-04-25T04:35:28;12.73;;;11.63;;
7571;SDS011;3827;49.928;8.548;2023-04-25T04:37:55;12.98;;;11.88;;
7571;SDS011;3827;49.928;8.548;2023-04-25T04:40:22;13.07;;;11.90;;
7571;SDS011;3827;49.928;8.548;2023-04-25T04:42:49;13.88;;;12.55;;
7571;SDS011;3827;49.928;8.548;2023-04-25T04:45:15;11.60;;;10.40;;
7571;SDS011;3827;49.928;8.548;2023-04-25T04:47:44;12.57;;;10.15;;
7571;SDS011;3827;49.928;8.548;2023-04-25T04:50:11;11.38;;;9.75;;
7571;SDS011;3827;49.928;8.548;2023-04-25T04:52:38;10.38;;;8.90;;
7571;SDS011;3827;49.928;8.548;2023-04-25T04:55:05;11.07;;;8.77;;
7571;SDS011;3827;49.928;8.548;2023-04-25T04:57:33;9.77;;;7.88;;
7571;SDS011;3827;49.928;8.548;2023-04-25T05:00:00;11.77;;;7.82;;
7571;SDS011;3827;49.928;8.548;2023-04-25T05:02:27;11.93;;;7.93;;
7571;SDS011;3827;49.928;8.548;2023-04-25T05:04:56;11.93;;;7.75;;
7571;SDS011;3827;49.928;8.548;2023-04-25T05:07:22;14.40;;;7.53;;
7571;SDS011;3827;49.928;8.548;2023-04-25T05:09:49;8.75;;;6.60;;
7571;SDS011;3827;49.928;8.548;2023-04-25T05:12:16;11.55;;;7.45;;
7571;SDS011;3827;49.928;8.548;2023-04-25T05:14:43;8.95;;;7.20;;
7571;SDS011;3827;49.928;8.548;2023-04-25T05:17:10;11.13;;;7.43;;
7571;SDS011;3827;49.928;8.548;2023-04-25T05:19:37;12.53;;;7.77;;
7571;SDS011;3827;49.928;8.548;2023-04-25T05:22:05;9.85;;;7.18;;
7571;SDS011;3827;49.928;8.548;2023-04-25T05:24:32;10.05;;;7.32;;
7571;SDS011;3827;49.928;8.548;2023-04-25T05:27:01;11.82;;;7.38;;
7571;SDS011;3827;49.928;8.548;2023-04-25T05:29:27;9.68;;;7.45;;
7571;SDS011;3827;49.928;8.548;2023-04-25T05:31:54;13.38;;;8.23;;
7571;SDS011;3827;49.928;8.548;2023-04-25T05:34:21;11.70;;;7.57;;
7571;SDS011;3827;49.928;8.548;2023-04-25T05:36:48;11.85;;;8.27;;
7571;SDS011;3827;49.928;8.548;2023-04-25T05:39:16;11.02;;;8.15;;
7571;SDS011;3827;49.928;8.548;2023-04-25T05:41:43;12.02;;;8.68;;
7571;SDS011;3827;49.928;8.548;2023-04-25T05:44:10;11.57;;;8.13;;
7571;SDS011;3827;49.928;8.548;2023-04-25T05:46:37;12.45;;;8.25;;
7571;SDS011;3827;49.928;8.548;2023-04-25T05:49:04;11.25;;;7.97;;
7571;SDS011;3827;49.928;8.548;2023-04-25T05:51:31;13.73;;;8.43;;
7571;SDS011;3827;49.928;8.548;2023-04-25T05:53:57;11.63;;;7.95;;
7571;SDS011;3827;49.928;8.548;2023-04-25T05:56:26;10.48;;;7.43;;
7571;SDS011;3827;49.928;8.548;2023-04-25T05:58:52;10.07;;;7.50;;
7571;SDS011;3827;49.928;8.548;2023-04-25T06:01:20;11.60;;;7.85;;
7571;SDS011;3827;49.928;8.548;2023-04-25T06:03:47;11.55;;;7.47;;
7571;SDS011;3827;49.928;8.548;2023-04-25T06:06:14;9.10;;;7.20;;
7571;SDS011;3827;49.928;8.548;2023-04-25T06:08:41;9.93;;;7.23;;
7571;SDS011;3827;49.928;8.548;2023-04-25T06:11:08;9.88;;;7.28;;
7571;SDS011;3827;49.928;8.548;2023-04-25T06:13:36;10.23;;;7.13;;
7571;SDS011;3827;49.928;8.548;2023-04-25T06:16:03;9.80;;;6.90;;
7571;SDS011;3827;49.928;8.548;2023-04-25T06:18:30;11.77;;;7.63;;
7571;SDS011;3827;49.928;8.548;2023-04-25T06:20:57;10.63;;;7.13;;
7571;SDS011;3827;49.928;8.548;2023-04-25T06:23:23;9.20;;;6.30;;
7571;SDS011;3827;49.928;8.548;2023-04-25T06:25:50;10.13;;;6.70;;
7571;SDS011;3827;49.928;8.548;2023-04-25T06:28:17;9.43;;;6.25;;
7571;SDS011;3827;49.928;8.548;2023-04-25T06:30:46;9.65;;;6.88;;
7571;SDS011;3827;49.928;8.548;2023-04-25T06:33:12;11.55;;;6.68;;
7571;SDS011;3827;49.928;8.548;2023-04-25T06:35:39;9.93;;;6.35;;
7571;SDS011;3827;49.928;8.548;2023-04-25T06:38:06;9.20;;;5.90;;
7571;SDS011;3827;49.928;8.548;2023-04-25T06:40:34;9.73;;;6.50;;
7571;SDS011;3827;49.928;8.548;2023-04-25T06:43:00;10.85;;;6.60;;
7571;SDS011;3827;49.928;8.548;2023-04-25T06:45:27;9.43;;;6.82;;
7571;SDS011;3827;49.928;8.548;2023-04-25T06:47:55;10.68;;;6.63;;
7571;SDS011;3827;49.928;8.548;2023-04-25T06:50:22;6.35;;;5.05;;
7571;SDS011;3827;49.928;8.548;2023-04-25T06:52:49;9.20;;;6.20;;
7571;SDS011;3827;49.928;8.548;2023-04-25T06:55:16;9.82;;;5.65;;
7571;SDS011;3827;49.928;8.548;2023-04-25T06:57:43;8.27;;;5.55;;
7571;SDS011;3827;49.928;8.548;2023-04-25T07:00:10;6.40;;;5.10;;
7571;SDS011;3827;49.928;8.548;2023-04-25T07:02:38;7.65;;;5.22;;
7571;SDS011;3827;49.928;8.548;2023-04-25T07:05:09;6.90;;;5.63;;
7571;SDS011;3827;49.928;8.548;2023-04-25T07:07:35;7.47;;;4.70;;
7571;SDS011;3827;49.928;8.548;2023-04-25T07:10:02;6.47;;;4.38;;
7571;SDS011;3827;49.928;8.548;2023-04-25T07:12:30;6.25;;;4.32;;
7571;SDS011;3827;49.928;8.548;2023-04-25T07:14:57;8.30;;;4.97;;
7571;SDS011;3827;49.928;8.548;2023-04-25T07:17:23;7.30;;;5.07;;
7571;SDS011;3827;49.928;8.548;2023-04-25T07:19:50;6.30;;;5.30;;
7571;SDS011;3827;49.928;8.548;2023-04-25T07:22:18;6.50;;;4.28;;
7571;SDS011;3827;49.928;8.548;2023-04-25T07:24:45;5.55;;;4.68;;
7571;SDS011;3827;49.928;8.548;2023-04-25T07:27:13;6.03;;;3.80;;
7571;SDS011;3827;49.928;8.548;2023-04-25T07:29:40;5.30;;;3.50;;
7571;SDS011;3827;49.928;8.548;2023-04-25T07:32:07;5.70;;;3.67;;
7571;SDS011;3827;49.928;8.548;2023-04-25T07:34:35;6.15;;;3.80;;
7571;SDS011;3827;49.928;8.548;2023-04-25T07:37:03;5.20;;;3.38;;
7571;SDS011;3827;49.928;8.548;2023-04-25T07:39:32;4.90;;;3.58;;
7571;SDS011;3827;49.928;8.548;2023-04-25T07:41:59;6.32;;;3.50;;
7571;SDS011;3827;49.928;8.548;2023-04-25T07:44:27;7.25;;;3.50;;
7571;SDS011;3827;49.928;8.548;2023-04-25T07:46:55;5.88;;;3.78;;
7571;SDS011;3827;49.928;8.548;2023-04-25T07:49:22;6.30;;;3.65;;
7571;SDS011;3827;49.928;8.548;2023-04-25T07:51:49;6.25;;;3.60;;
7571;SDS011;3827;49.928;8.548;2023-04-25T07:54:16;6.50;;;3.75;;
7571;SDS011;3827;49.928;8.548;2023-04-25T07:56:45;8.05;;;4.18;;
7571;SDS011;3827;49.928;8.548;2023-04-25T07:59:12;7.50;;;4.28;;
7571;SDS011;3827;49.928;8.548;2023-04-25T08:01:38;8.27;;;4.72;;
7571;SDS011;3827;49.928;8.548;2023-04-25T08:04:05;6.57;;;4.32;;
7571;SDS011;3827;49.928;8.548;2023-04-25T08:06:32;5.75;;;4.07;;
7571;SDS011;3827;49.928;8.548;2023-04-25T08:08:59;7.38;;;4.28;;
7571;SDS011;3827;49.928;8.548;2023-04-25T08:11:26;8.27;;;4.35;;
7571;SDS011;3827;49.928;8.548;2023-04-25T08:13:54;6.43;;;4.20;;
7571;SDS011;3827;49.928;8.548;2023-04-25T08:16:21;6.82;;;3.90;;
7571;SDS011;3827;49.928;8.548;2023-04-25T08:18:47;6.70;;;3.83;;
7571;SDS011;3827;49.928;8.548;2023-04-25T08:21:16;6.57;;;3.70;;
7571;SDS011;3827;49.928;8.548;2023-04-25T08:23:42;7.50;;;3.33;;
7571;SDS011;3827;49.928;8.548;2023-04-25T08:26:09;6.15;;;3.40;;
7571;SDS011;3827;49.928;8.548;2023-04-25T08:28:36;4.90;;;2.90;;
7571;SDS011;3827;49.928;8.548;2023-04-25T08:31:04;4.68;;;2.78;;
7571;SDS011;3827;49.928;8.548;2023-04-25T08:33:31;5.75;;;3.35;;
7571;SDS011;3827;49.928;8.548;2023-04-25T08:35:58;6.15;;;3.08;;
7571;SDS011;3827;49.928;8.548;2023-04-25T08:38:25;5.72;;;3.05;;
7571;SDS011;3827;49.928;8.548;2023-04-25T08:40:52;4.93;;;3.08;;
7571;SDS011;3827;49.928;8.548;2023-04-25T08:43:20;3.58;;;2.95;;
7571;SDS011;3827;49.928;8.548;2023-04-25T08:45:49;4.60;;;3.00;;
7571;SDS011;3827;49.928;8.548;2023-04-25T08:48:19;4.68;;;3.00;;
7571;SDS011;3827;49.928;8.548;2023-04-25T08:50:49;5.25;;;2.97;;
7571;SDS011;3827;49.928;8.548;2023-04-25T08:53:19;4.93;;;2.75;;
7571;SDS011;3827;49.928;8.548;2023-04-25T08:55:48;4.45;;;2.60;;
7571;SDS011;3827;49.928;8.548;2023-04-25T08:58:16;3.77;;;2.40;;
7571;SDS011;3827;49.928;8.548;2023-04-25T09:00:45;3.10;;;2.10;;
7571;SDS011;3827;49.928;8.548;2023-04-25T09:03:12;3.97;;;2.13;;
7571;SDS011;3827;49.928;8.548;2023-04-25T09:05:41;3.40;;;2.43;;
7571;SDS011;3827;49.928;8.548;2023-04-25T09:08:08;3.17;;;2.10;;
7571;SDS011;3827;49.928;8.548;2023-04-25T09:10:36;3.30;;;2.05;;
7571;SDS011;3827;49.928;8.548;2023-04-25T09:13:03;3.15;;;2.30;;
7571;SDS011;3827;49.928;8.548;2023-04-25T09:15:31;3.72;;;2.58;;
7571;SDS011;3827;49.928;8.548;2023-04-25T09:17:59;4.60;;;2.35;;
7571;SDS011;3827;49.928;8.548;2023-04-25T09:20:26;3.78;;;2.22;;
7571;SDS011;3827;49.928;8.548;2023-04-25T09:23:04;3.85;;;2.38;;
7571;SDS011;3827;49.928;8.548;2023-04-25T09:25:35;4.93;;;2.40;;
7571;SDS011;3827;49.928;8.548;2023-04-25T09:28:04;3.15;;;2.33;;
7571;SDS011;3827;49.928;8.548;2023-04-25T09:30:33;3.65;;;2.17;;
7571;SDS011;3827;49.928;8.548;2023-04-25T09:33:04;3.55;;;2.25;;
7571;SDS011;3827;49.928;8.548;2023-04-25T09:35:35;2.60;;;2.25;;
7571;SDS011;3827;49.928;8.548;2023-04-25T09:38:08;3.33;;;2.60;;
7571;SDS011;3827;49.928;8.548;2023-04-25T09:40:38;4.27;;;2.53;;
7571;SDS011;3827;49.928;8.548;2023-04-25T09:43:08;3.17;;;2.20;;
7571;SDS011;3827;49.928;8.548;2023-04-25T09:45:40;3.17;;;2.30;;
7571;SDS011;3827;49.928;8.548;2023-04-25T09:48:11;3.03;;;2.30;;
7571;SDS011;3827;49.928;8.548;2023-04-25T09:50:38;4.00;;;2.30;;
7571;SDS011;3827;49.928;8.548;2023-04-25T09:53:06;3.17;;;1.98;;
7571;SDS011;3827;49.928;8.548;2023-04-25T09:55:35;3.55;;;2.35;;
7571;SDS011;3827;49.928;8.548;2023-04-25T09:58:04;3.40;;;2.40;;
7571;SDS011;3827;49.928;8.548;2023-04-25T10:00:32;4.50;;;2.97;;
7571;SDS011;3827;49.928;8.548;2023-04-25T10:03:00;4.30;;;2.60;;
7571;SDS011;3827;49.928;8.548;2023-04-25T10:05:30;3.77;;;2.80;;
7571;SDS011;3827;49.928;8.548;2023-04-25T10:08:01;3.60;;;2.80;;
7571;SDS011;3827;49.928;8.548;2023-04-25T10:10:31;4.97;;;3.10;;
7571;SDS011;3827;49.928;8.548;2023-04-25T10:13:02;4.73;;;3.00;;
7571;SDS011;3827;49.928;8.548;2023-04-25T10:15:30;4.97;;;3.50;;
7571;SDS011;3827;49.928;8.548;2023-04-25T10:17:57;5.18;;;3.35;;
7571;SDS011;3827;49.928;8.548;2023-04-25T10:20:25;4.20;;;3.30;;
7571;SDS011;3827;49.928;8.548;2023-04-25T10:22:52;4.63;;;3.50;;
7571;SDS011;3827;49.928;8.548;2023-04-25T10:25:22;5.28;;;3.40;;
7571;SDS011;3827;49.928;8.548;2023-04-25T10:27:51;4.35;;;3.33;;
7571;SDS011;3827;49.928;8.548;2023-04-25T10:30:18;4.70;;;3.65;;
7571;SDS011;3827;49.928;8.548;2023-04-25T10:32:45;4.63;;;3.67;;
7571;SDS011;3827;49.928;8.548;2023-04-25T10:35:15;4.28;;;3.70;;
7571;SDS011;3827;49.928;8.548;2023-04-25T10:37:59;5.95;;;4.15;;
7571;SDS011;3827;49.928;8.548;2023-04-25T10:40:28;4.83;;;3.57;;
7571;SDS011;3827;49.928;8.548;2023-04-25T10:43:32;5.20;;;3.97;;
7571;SDS011;3827;49.928;8.548;2023-04-25T10:46:15;4.38;;;3.90;;
7571;SDS011;3827;49.928;8.548;2023-04-25T10:48:48;4.70;;;3.42;;
7571;SDS011;3827;49.928;8.548;2023-04-25T10:51:16;5.20;;;3.97;;
7571;SDS011;3827;49.928;8.548;2023-04-25T10:53:56;3.92;;;3.40;;
7571;SDS011;3827;49.928;8.548;2023-04-25T10:56:25;4.20;;;3.78;;
7571;SDS011;3827;49.928;8.548;2023-04-25T10:59:03;5.20;;;3.72;;
7571;SDS011;3827;49.928;8.548;2023-04-25T11:01:35;6.00;;;3.90;;
7571;SDS011;3827;49.928;8.548;2023-04-25T11:04:04;4.68;;;3.55;;
7571;SDS011;3827;49.928;8.548;2023-04-25T11:06:34;6.33;;;3.87;;
7571;SDS011;3827;49.928;8.548;2023-04-25T11:09:13;6.22;;;4.10;;
7571;SDS011;3827;49.928;8.548;2023-04-25T11:11:40;5.45;;;3.72;;
7571;SDS011;3827;49.928;8.548;2023-04-25T11:14:09;5.03;;;3.47;;
7571;SDS011;3827;49.928;8.548;2023-04-25T11:16:35;5.00;;;3.75;;
7571;SDS011;3827;49.928;8.548;2023-04-25T11:19:02;4.60;;;3.63;;
7571;SDS011;3827;49.928;8.548;2023-04-25T11:21:30;4.65;;;3.92;;
7571;SDS011;3827;49.928;8.548;2023-04-25T11:23:57;6.38;;;4.45;;
7571;SDS011;3827;49.928;8.548;2023-04-25T11:26:25;4.10;;;3.70;;
7571;SDS011;3827;49.928;8.548;2023-04-25T11:28:56;3.97;;;3.55;;
7571;SDS011;3827;49.928;8.548;2023-04-25T11:31:26;4.88;;;3.53;;
7571;SDS011;3827;49.928;8.548;2023-04-25T11:33:53;5.43;;;3.78;;
7571;SDS011;3827;49.928;8.548;2023-04-25T11:36:22;5.38;;;3.30;;
7571;SDS011;3827;49.928;8.548;2023-04-25T11:38:49;6.65;;;4.57;;
7571;SDS011;3827;49.928;8.548;2023-04-25T11:41:16;7.57;;;4.05;;
7571;SDS011;3827;49.928;8.548;2023-04-25T11:43:44;5.47;;;3.40;;
7571;SDS011;3827;49.928;8.548;2023-04-25T11:46:10;6.70;;;4.00;;
7571;SDS011;3827;49.928;8.548;2023-04-25T11:48:39;5.28;;;3.50;;
7571;SDS011;3827;49.928;8.548;2023-04-25T11:51:06;7.65;;;4.75;;
7571;SDS011;3827;49.928;8.548;2023-04-25T11:53:34;4.97;;;3.83;;
7571;SDS011;3827;49.928;8.548;2023-04-25T11:56:01;6.03;;;3.60;;
7571;SDS011;3827;49.928;8.548;2023-04-25T11:58:28;5.25;;;3.03;;
7571;SDS011;3827;49.928;8.548;2023-04-25T12:00:55;5.90;;;3.20;;
7571;SDS011;3827;49.928;8.548;2023-04-25T12:03:24;4.90;;;2.75;;
7571;SDS011;3827;49.928;8.548;2023-04-25T12:06:03;4.03;;;2.80;;
7571;SDS011;3827;49.928;8.548;2023-04-25T12:08:30;5.78;;;3.40;;
7571;SDS011;3827;49.928;8.548;2023-04-25T12:10:57;5.63;;;3.15;;
7571;SDS011;3827;49.928;8.548;2023-04-25T12:13:25;5.05;;;3.05;;
7571;SDS011;3827;49.928;8.548;2023-04-25T12:15:53;6.03;;;3.30;;
7571;SDS011;3827;49.928;8.548;2023-04-25T12:18:21;6.47;;;3.08;;
7571;SDS011;3827;49.928;8.548;2023-04-25T12:20:51;5.47;;;3.03;;
7571;SDS011;3827;49.928;8.548;2023-04-25T12:23:25;7.05;;;3.38;;
7571;SDS011;3827;49.928;8.548;2023-04-25T12:25:53;5.63;;;3.10;;
7571;SDS011;3827;49.928;8.548;2023-04-25T12:28:21;5.88;;;2.85;;
7571;SDS011;3827;49.928;8.548;2023-04-25T12:30:52;7.63;;;2.90;;
7571;SDS011;3827;49.928;8.548;2023-04-25T12:33:20;6.53;;;4.22;;
7571;SDS011;3827;49.928;8.548;2023-04-25T12:35:47;5.00;;;2.63;;
7571;SDS011;3827;49.928;8.548;2023-04-25T12:38:20;5.50;;;2.95;;
7571;SDS011;3827;49.928;8.548;2023-04-25T12:40:48;6.05;;;3.08;;
7571;SDS011;3827;49.928;8.548;2023-04-25T12:43:15;5.35;;;3.17;;
7571;SDS011;3827;49.928;8.548;2023-04-25T12:45:42;4.65;;;2.50;;
7571;SDS011;3827;49.928;8.548;2023-04-25T12:48:09;5.88;;;2.90;;
7571;SDS011;3827;49.928;8.548;2023-04-25T12:50:36;6.43;;;2.72;;
7571;SDS011;3827;49.928;8.548;2023-04-25T12:53:03;5.30;;;2.75;;
7571;SDS011;3827;49.928;8.548;2023-04-25T12:55:30;4.78;;;2.75;;
7571;SDS011;3827;49.928;8.548;2023-04-25T12:57:58;6.53;;;2.88;;
7571;SDS011;3827;49.928;8.548;2023-04-25T13:00:25;5.72;;;2.67;;
7571;SDS011;3827;49.928;8.548;2023-04-25T13:02:52;6.87;;;2.60;;
7571;SDS011;3827;49.928;8.548;2023-04-25T13:05:19;6.45;;;2.90;;
7571;SDS011;3827;49.928;8.548;2023-04-25T13:07:46;5.88;;;2.80;;
7571;SDS011;3827;49.928;8.548;2023-04-25T13:10:13;7.05;;;2.78;;
7571;SDS011;3827;49.928;8.548;2023-04-25T13:12:39;6.30;;;2.90;;
7571;SDS011;3827;49.928;8.548;2023-04-25T13:15:08;4.53;;;2.50;;
7571;SDS011;3827;49.928;8.548;2023-04-25T13:17:36;3.92;;;2.33;;
7571;SDS011;3827;49.928;8.548;2023-04-25T13:20:03;6.13;;;2.72;;
7571;SDS011;3827;49.928;8.548;2023-04-25T13:22:33;4.82;;;2.60;;
7571;SDS011;3827;49.928;8.548;2023-04-25T13:25:01;4.47;;;2.53;;
7571;SDS011;3827;49.928;8.548;2023-04-25T13:27:29;4.87;;;2.33;;
7571;SDS011;3827;49.928;8.548;2023-04-25T13:29:57;4.20;;;2.43;;
7571;SDS011;3827;49.928;8.548;2023-04-25T13:32:26;4.82;;;2.20;;
7571;SDS011;3827;49.928;8.548;2023-04-25T13:34:53;4.25;;;2.03;;
7571;SDS011;3827;49.928;8.548;2023-04-25T13:37:20;4.20;;;2.00;;
7571;SDS011;3827;49.928;8.548;2023-04-25T13:39:49;5.95;;;3.50;;
7571;SDS011;3827;49.928;8.548;2023-04-25T13:42:16;6.20;;;2.50;;
7571;SDS011;3827;49.928;8.548;2023-04-25T13:44:43;4.70;;;2.35;;
7571;SDS011;3827;49.928;8.548;2023-04-25T13:47:10;5.45;;;2.60;;
7571;SDS011;3827;49.928;8.548;2023-04-25T13:49:38;5.28;;;2.35;;
7571;SDS011;3827;49.928;8.548;2023-04-25T13:52:05;4.28;;;2.35;;
7571;SDS011;3827;49.928;8.548;2023-04-25T13:54:32;5.13;;;2.35;;
7571;SDS011;3827;49.928;8.548;2023-04-25T13:56:59;6.55;;;2.45;;
7571;SDS011;3827;49.928;8.548;2023-04-25T13:59:27;4.13;;;2.70;;
7571;SDS011;3827;49.928;8.548;2023-04-25T14:01:53;4.25;;;2.30;;
7571;SDS011;3827;49.928;8.548;2023-04-25T14:04:20;4.55;;;2.33;;
7571;SDS011;3827;49.928;8.548;2023-04-25T14:06:48;6.10;;;2.60;;
7571;SDS011;3827;49.928;8.548;2023-04-25T14:09:16;3.90;;;2.28;;
7571;SDS011;3827;49.928;8.548;2023-04-25T14:11:43;5.90;;;2.47;;
7571;SDS011;3827;49.928;8.548;2023-04-25T14:14:09;3.05;;;2.15;;
7571;SDS011;3827;49.928;8.548;2023-04-25T14:16:37;5.30;;;2.33;;
7571;SDS011;3827;49.928;8.548;2023-04-25T14:19:04;4.00;;;2.28;;
7571;SDS011;3827;49.928;8.548;2023-04-25T14:21:31;5.75;;;2.65;;
7571;SDS011;3827;49.928;8.548;2023-04-25T14:23:59;5.97;;;2.70;;
7571;SDS011;3827;49.928;8.548;2023-04-25T14:26:26;4.30;;;2.60;;
7571;SDS011;3827;49.928;8.548;2023-04-25T14:28:53;4.25;;;2.38;;
7571;SDS011;3827;49.928;8.548;2023-04-25T14:31:20;4.15;;;2.70;;
7571;SDS011;3827;49.928;8.548;2023-04-25T14:33:47;4.55;;;2.50;;
7571;SDS011;3827;49.928;8.548;2023-04-25T14:36:14;3.60;;;2.17;;
7571;SDS011;3827;49.928;8.548;2023-04-25T14:38:40;5.93;;;2.58;;
7571;SDS011;3827;49.928;8.548;2023-04-25T14:41:09;5.72;;;2.65;;
7571;SDS011;3827;49.928;8.548;2023-04-25T14:43:36;7.57;;;2.70;;
7571;SDS011;3827;49.928;8.548;2023-04-25T14:46:04;7.33;;;2.80;;
7571;SDS011;3827;49.928;8.548;2023-04-25T14:48:32;8.20;;;2.85;;
7571;SDS011;3827;49.928;8.548;2023-04-25T14:50:59;4.90;;;2.55;;
7571;SDS011;3827;49.928;8.548;2023-04-25T14:53:26;7.15;;;2.80;;
7571;SDS011;3827;49.928;8.548;2023-04-25T14:55:53;5.53;;;2.55;;
7571;SDS011;3827;49.928;8.548;2023-04-25T14:58:21;5.22;;;2.80;;
7571;SDS011;3827;49.928;8.548;2023-04-25T15:00:48;3.70;;;2.40;;
7571;SDS011;3827;49.928;8.548;2023-04-25T15:03:15;4.63;;;2.30;;
7571;SDS011;3827;49.928;8.548;2023-04-25T15:05:43;4.50;;;2.22;;
7571;SDS011;3827;49.928;8.548;2023-04-25T15:08:10;6.68;;;2.67;;
7571;SDS011;3827;49.928;8.548;2023-04-25T15:10:37;7.32;;;2.55;;
7571;SDS011;3827;49.928;8.548;2023-04-25T15:13:04;6.10;;;2.20;;
7571;SDS011;3827;49.928;8.548;2023-04-25T15:15:32;7.35;;;2.72;;
7571;SDS011;3827;49.928;8.548;2023-04-25T15:17:59;5.35;;;2.65;;